Time;durP1;ratioP1;P1;durP2;ratioP2;P2;SDS_P1;SDS_P2;PMS_P1;PMS_P2;Temp;Humidity;BMP_temperature;BMP_pressure;BME280_temperature;BME280_humidity;BME280_pressure;Samples;Min_cycle;Max_cycle;Signal;HPM_P1;HPM_P2
2022/09/17 00:01:25;;;;;;;2.47;0.82;;;16.50;99.90;;;;;;5048376;28;20029;-82
2022/09/17 00:04:00;;;;;;;4.38;1.08;;;16.50;99.90;;;;;;5054714;28;20041;-84
2022/09/17 00:06:28;;;;;;;2.45;0.70;;;16.60;99.90;;;;;;5068025;28;20485;-88
2022/09/17 00:08:55;;;;;;;9.18;0.85;;;16.70;99.90;;;;;;5073894;28;20032;-83
2022/09/17 00:11:25;;;;;;;2.40;0.80;;;16.80;99.90;;;;;;5071826;28;20028;-85
2022/09/17 00:13:53;;;;;;;4.28;1.10;;;16.90;99.90;;;;;;5060311;28;20060;-82
2022/09/17 00:16:30;;;;;;;3.83;0.93;;;17.00;99.90;;;;;;5053877;28;20029;-84
2022/09/17 00:18:58;;;;;;;5.32;0.60;;;17.00;99.90;;;;;;5053226;28;20013;-84
2022/09/17 00:21:26;;;;;;;2.70;0.70;;;17.00;99.90;;;;;;5053141;28;20492;-85
2022/09/17 00:23:56;;;;;;;5.30;1.08;;;17.10;99.90;;;;;;5052476;28;20025;-81
2022/09/17 00:26:24;;;;;;;6.68;1.02;;;17.20;99.90;;;;;;5052736;28;20021;-82
2022/09/17 00:28:53;;;;;;;3.72;1.15;;;17.20;99.90;;;;;;5052238;28;20040;-83
2022/09/17 00:31:21;;;;;;;2.80;0.68;;;17.30;99.90;;;;;;5053244;28;20028;-86
2022/09/17 00:33:49;;;;;;;2.67;0.55;;;17.40;99.90;;;;;;5052030;28;20029;-85
2022/09/17 00:36:19;;;;;;;7.47;0.55;;;17.50;99.90;;;;;;5052764;28;20147;-79
2022/09/17 00:38:52;;;;;;;1.50;0.80;;;17.50;99.90;;;;;;5051158;28;20079;-83
2022/09/17 00:41:21;;;;;;;1.58;0.57;;;17.40;99.90;;;;;;5050483;28;20600;-83
2022/09/17 00:43:57;;;;;;;2.15;0.77;;;17.50;99.90;;;;;;5049998;28;20033;-85
2022/09/17 00:46:29;;;;;;;;;;;17.50;99.90;;;;;;5051814;28;20413;-84
2022/09/17 00:49:00;;;;;;;7.28;1.13;;;17.40;99.90;;;;;;5051506;28;20041;-84
2022/09/17 00:51:48;;;;;;;3.13;1.17;;;17.30;99.90;;;;;;5052155;28;20079;-85
2022/09/17 00:54:17;;;;;;;2.60;0.65;;;17.20;99.90;;;;;;5052626;28;20025;-85
2022/09/17 00:56:45;;;;;;;2.78;0.60;;;17.10;99.90;;;;;;5053005;28;20033;-86
2022/09/17 00:59:14;;;;;;;4.05;0.80;;;17.10;99.90;;;;;;5053254;28;20033;-85
2022/09/17 01:01:41;;;;;;;2.83;1.10;;;17.00;99.90;;;;;;5053232;28;20060;-85
2022/09/17 01:04:17;;;;;;;2.53;0.82;;;16.90;99.90;;;;;;5053199;28;20055;-85
2022/09/17 01:07:11;;;;;;;2.55;0.60;;;16.80;99.90;;;;;;5052985;28;20363;-83
2022/09/17 01:09:47;;;;;;;4.80;0.85;;;16.70;99.90;;;;;;5053773;28;20061;-85
2022/09/17 01:12:35;;;;;;;5.20;1.02;;;16.60;99.90;;;;;;5053129;28;20401;-81
2022/09/17 01:15:26;;;;;;;4.47;1.52;;;16.40;99.90;;;;;;5053076;28;20025;-82
2022/09/17 01:18:21;;;;;;;4.70;1.55;;;16.00;99.90;;;;;;5053264;28;20539;-85
2022/09/17 01:21:08;;;;;;;7.05;1.83;;;15.50;99.90;;;;;;5053115;28;20029;-81
2022/09/17 01:24:11;;;;;;;9.98;1.40;;;15.20;99.90;;;;;;5053160;28;20046;-81
2022/09/17 01:27:00;;;;;;;4.35;1.40;;;15.00;99.90;;;;;;5044495;28;20033;-81
2022/09/17 01:29:39;;;;;;;6.05;1.80;;;14.80;99.90;;;;;;5053340;28;20108;-81
2022/09/17 01:32:19;;;;;;;3.63;1.35;;;14.60;99.90;;;;;;5053142;28;20100;-80
2022/09/17 01:34:59;;;;;;;4.75;1.30;;;14.40;99.90;;;;;;5054131;28;20029;-81
2022/09/17 01:37:32;;;;;;;7.72;1.10;;;14.40;99.90;;;;;;5056265;28;20029;-84
2022/09/17 01:40:34;;;;;;;2.55;1.10;;;14.30;99.90;;;;;;5055986;28;20021;-83
2022/09/17 01:43:05;;;;;;;8.50;1.63;;;14.30;99.90;;;;;;5055333;28;20040;-80
2022/09/17 01:45:44;;;;;;;3.80;0.70;;;14.20;99.90;;;;;;5054759;28;20035;-80
2022/09/17 01:48:20;;;;;;;4.72;1.17;;;14.20;99.90;;;;;;5056036;28;20017;-81
2022/09/17 01:51:10;;;;;;;6.15;1.35;;;14.10;99.90;;;;;;5055367;28;20033;-80
2022/09/17 01:53:58;;;;;;;1.48;0.70;;;14.10;99.90;;;;;;5056097;28;20036;-82
2022/09/17 01:56:52;;;;;;;3.00;1.38;;;14.20;99.90;;;;;;5056158;28;20103;-80
2022/09/17 01:59:30;;;;;;;2.90;0.70;;;14.30;99.90;;;;;;5055289;28;20056;-80
2022/09/17 02:02:08;;;;;;;3.97;1.00;;;14.60;99.90;;;;;;5055768;28;20052;-83
2022/09/17 02:04:51;;;;;;;2.42;0.65;;;14.90;99.90;;;;;;5055327;28;20017;-81
2022/09/17 02:07:21;;;;;;;2.67;1.00;;;15.20;99.90;;;;;;5055720;28;20390;-82
2022/09/17 02:10:00;;;;;;;5.60;1.10;;;15.50;99.90;;;;;;5054475;28;20029;-83
2022/09/17 02:12:37;;;;;;;4.55;0.93;;;15.60;99.90;;;;;;5053959;28;20096;-80
2022/09/17 02:15:10;;;;;;;4.97;0.75;;;15.80;99.90;;;;;;5063568;28;20021;-82
2022/09/17 02:17:45;;;;;;;2.28;0.90;;;15.80;99.90;;;;;;5067631;28;20481;-86
2022/09/17 02:20:14;;;;;;;1.77;0.50;;;16.00;99.90;;;;;;5053605;28;20021;-81
2022/09/17 02:22:55;;;;;;;2.67;0.93;;;16.10;99.90;;;;;;5054853;28;20039;-81
2022/09/17 02:25:26;;;;;;;3.55;0.93;;;16.10;99.90;;;;;;5054872;28;20032;-81
2022/09/17 02:28:16;;;;;;;7.85;0.82;;;16.20;99.90;;;;;;5054836;28;20028;-81
2022/09/17 02:30:43;;;;;;;4.13;0.80;;;16.30;99.90;;;;;;5054535;28;20021;-81
2022/09/17 02:33:14;;;;;;;1.27;0.52;;;16.50;99.90;;;;;;5054522;28;20058;-83
2022/09/17 02:35:43;;;;;;;1.40;0.70;;;16.50;99.90;;;;;;5054673;28;20016;-81
2022/09/17 02:38:10;;;;;;;1.92;0.73;;;16.60;99.90;;;;;;5054445;28;20096;-78
2022/09/17 02:40:47;;;;;;;1.20;0.50;;;16.80;99.90;;;;;;5052004;28;20040;-84
2022/09/17 02:43:43;;;;;;;5.78;0.85;;;16.90;99.90;;;;;;5055368;28;20024;-84
2022/09/17 02:46:10;;;;;;;1.30;0.52;;;17.10;99.90;;;;;;5055232;28;20399;-83
2022/09/17 02:49:07;;;;;;;2.00;0.60;;;17.10;99.90;;;;;;5055243;28;20031;-91
2022/09/17 02:52:16;;;;;;;2.10;0.40;;;17.00;99.90;;;;;;5055109;28;20021;-87
2022/09/17 02:55:17;;;;;;;1.90;0.45;;;16.80;99.90;;;;;;5047037;28;20048;-75
2022/09/17 02:57:56;;;;;;;0.60;0.30;;;16.60;99.90;;;;;;5054755;28;20021;-76
2022/09/17 03:00:27;;;;;;;2.65;0.55;;;16.50;99.90;;;;;;5054526;28;20017;-77
2022/09/17 03:03:28;;;;;;;0.93;0.50;;;16.60;99.90;;;;;;5062460;28;20044;-75
2022/09/17 03:05:56;;;;;;;1.92;0.55;;;16.80;99.90;;;;;;5071809;28;20037;-78
2022/09/17 03:08:38;;;;;;;4.05;0.40;;;16.90;99.90;;;;;;5074508;28;20020;-75
2022/09/17 03:11:08;;;;;;;1.13;0.60;;;17.10;99.90;;;;;;5074678;28;20055;-75
2022/09/17 03:13:35;;;;;;;1.67;0.50;;;17.20;99.90;;;;;;5074307;28;20024;-80
2022/09/17 03:16:04;;;;;;;3.25;0.82;;;17.30;99.90;;;;;;5074080;28;20028;-74
2022/09/17 03:18:32;;;;;;;2.90;0.68;;;17.30;99.90;;;;;;5074276;28;20044;-75
2022/09/17 03:20:59;;;;;;;1.52;0.50;;;17.20;99.90;;;;;;5074222;28;20025;-75
2022/09/17 03:23:27;;;;;;;1.98;0.30;;;17.10;99.90;;;;;;5074248;28;20044;-77
2022/09/17 03:25:54;;;;;;;1.70;0.47;;;17.00;99.90;;;;;;5062957;28;20025;-75
2022/09/17 03:28:24;;;;;;;1.38;0.38;;;17.20;99.90;;;;;;5053388;28;20032;-82
2022/09/17 03:30:51;;;;;;;1.00;0.40;;;17.50;99.90;;;;;;5053431;28;20024;-82
2022/09/17 03:33:19;;;;;;;2.00;0.63;;;17.60;99.90;;;;;;5053435;28;20017;-77
2022/09/17 03:35:47;;;;;;;1.27;0.43;;;17.90;99.90;;;;;;5053390;28;20470;-84
2022/09/17 03:38:15;;;;;;;2.60;0.43;;;18.10;99.90;;;;;;5053549;28;20052;-79
2022/09/17 03:40:43;;;;;;;2.15;0.60;;;18.10;99.90;;;;;;5053837;28;20029;-81
2022/09/17 03:43:10;;;;;;;1.45;0.45;;;18.10;99.90;;;;;;5053964;28;20052;-79
2022/09/17 03:45:38;;;;;;;1.00;0.30;;;18.20;99.90;;;;;;5053861;28;20434;-77
2022/09/17 03:48:05;;;;;;;1.27;0.50;;;18.20;99.90;;;;;;5053783;28;20017;-81
2022/09/17 03:50:32;;;;;;;1.88;0.30;;;18.20;99.90;;;;;;5052430;28;20044;-77
2022/09/17 03:53:00;;;;;;;2.10;0.30;;;18.40;99.90;;;;;;5053614;28;20021;-77
2022/09/17 03:55:27;;;;;;;0.82;0.20;;;18.50;99.90;;;;;;5052404;28;20036;-78
2022/09/17 03:57:55;;;;;;;1.63;0.30;;;18.40;99.90;;;;;;5052930;28;20021;-81
2022/09/17 04:00:23;;;;;;;1.38;0.60;;;18.30;99.90;;;;;;5052342;28;20033;-79
2022/09/17 04:02:50;;;;;;;0.88;0.20;;;18.20;99.90;;;;;;5053166;28;20051;-81
2022/09/17 04:05:17;;;;;;;2.78;0.40;;;18.10;99.90;;;;;;5053672;28;20465;-79
2022/09/17 04:07:45;;;;;;;0.47;0.20;;;18.20;99.90;;;;;;5052197;28;20029;-81
2022/09/17 04:10:15;;;;;;;0.40;0.13;;;18.00;99.90;;;;;;5052980;28;20044;-78
2022/09/17 04:12:42;;;;;;;1.77;0.38;;;17.80;99.90;;;;;;5051360;28;20052;-78
2022/09/17 04:15:10;;;;;;;0.50;0.30;;;17.70;99.90;;;;;;5050019;28;20080;-80
2022/09/17 04:17:37;;;;;;;2.83;0.52;;;17.60;99.90;;;;;;5049863;28;20052;-79
2022/09/17 04:20:06;;;;;;;0.60;0.35;;;17.60;99.90;;;;;;5049833;28;20023;-78
2022/09/17 04:22:33;;;;;;;2.25;0.30;;;17.50;99.90;;;;;;5049868;28;20524;-80
2022/09/17 04:25:00;;;;;;;0.32;0.30;;;17.50;99.90;;;;;;5050251;28;20104;-78
2022/09/17 04:27:28;;;;;;;0.93;0.30;;;17.60;99.90;;;;;;5051251;28;20059;-78
2022/09/17 04:29:55;;;;;;;1.17;0.50;;;17.90;99.90;;;;;;5052137;28;20069;-80
2022/09/17 04:32:23;;;;;;;1.27;0.20;;;17.90;99.90;;;;;;5053765;28;20474;-81
2022/09/17 04:34:50;;;;;;;0.63;0.30;;;17.80;99.90;;;;;;5053302;28;20025;-80
2022/09/17 04:37:18;;;;;;;1.27;0.40;;;17.80;99.90;;;;;;5054222;28;20021;-78
2022/09/17 04:39:46;;;;;;;0.85;0.20;;;17.70;99.90;;;;;;5053156;28;20056;-78
2022/09/17 04:42:13;;;;;;;1.38;0.43;;;17.90;99.90;;;;;;5053221;28;20116;-79
2022/09/17 04:44:40;;;;;;;1.30;0.28;;;18.10;99.90;;;;;;5053288;28;20021;-80
2022/09/17 04:47:07;;;;;;;0.60;0.20;;;18.30;99.90;;;;;;5051970;28;20044;-78
2022/09/17 04:49:35;;;;;;;0.45;0.20;;;18.40;99.90;;;;;;5053112;28;20390;-81
2022/09/17 04:52:02;;;;;;;0.77;0.20;;;18.50;99.90;;;;;;5051962;28;20025;-79
2022/09/17 04:54:30;;;;;;;1.48;0.50;;;18.60;99.90;;;;;;5053024;28;20512;-84
2022/09/17 04:56:57;;;;;;;1.88;0.50;;;18.60;99.90;;;;;;5053004;28;20477;-79
2022/09/17 04:59:24;;;;;;;3.00;0.40;;;18.70;99.90;;;;;;5052852;28;20537;-82
2022/09/17 05:01:51;;;;;;;0.70;0.35;;;18.70;99.90;;;;;;5051789;28;20130;-81
2022/09/17 05:04:19;;;;;;;1.35;0.40;;;18.70;99.90;;;;;;5051705;28;20671;-81
2022/09/17 05:06:47;;;;;;;1.65;0.43;;;18.70;99.90;;;;;;5052872;28;20473;-84
2022/09/17 05:09:14;;;;;;;2.72;0.60;;;18.70;99.90;;;;;;5053523;28;20025;-78
2022/09/17 05:11:42;;;;;;;2.35;0.45;;;18.70;99.90;;;;;;5056817;28;20037;-79
2022/09/17 05:14:09;;;;;;;0.30;0.20;;;18.70;99.90;;;;;;5056840;28;20070;-81
2022/09/17 05:16:37;;;;;;;0.40;0.20;;;18.70;99.90;;;;;;5056713;28;20029;-80
2022/09/17 05:19:04;;;;;;;0.95;0.65;;;18.70;99.90;;;;;;5056568;28;20013;-84
2022/09/17 05:21:31;;;;;;;0.90;0.40;;;18.50;99.90;;;;;;5056657;28;20115;-78
2022/09/17 05:24:00;;;;;;;0.88;0.40;;;18.30;99.90;;;;;;5055318;28;20376;-84
2022/09/17 05:26:28;;;;;;;1.10;0.30;;;18.00;99.90;;;;;;5056390;28;20035;-78
2022/09/17 05:28:55;;;;;;;2.15;0.45;;;17.90;99.90;;;;;;5056306;28;20036;-78
2022/09/17 05:31:23;;;;;;;1.67;0.63;;;17.80;99.90;;;;;;5056406;28;20033;-87
2022/09/17 05:33:50;;;;;;;2.08;0.30;;;17.70;99.90;;;;;;5056394;28;20025;-76
2022/09/17 05:36:17;;;;;;;1.48;0.43;;;17.60;99.90;;;;;;5054945;28;20025;-76
2022/09/17 05:38:45;;;;;;;1.65;0.50;;;17.50;99.90;;;;;;5056272;28;20063;-77
2022/09/17 05:41:12;;;;;;;1.17;0.60;;;17.50;99.90;;;;;;5056253;28;20168;-77
2022/09/17 05:43:39;;;;;;;0.70;0.40;;;17.40;99.90;;;;;;5056080;28;20108;-76
2022/09/17 05:46:07;;;;;;;1.65;0.35;;;17.30;99.90;;;;;;5056104;28;20377;-82
2022/09/17 05:48:34;;;;;;;0.80;0.28;;;17.30;99.90;;;;;;5056114;28;20029;-77
2022/09/17 05:51:01;;;;;;;0.93;0.55;;;17.30;99.90;;;;;;5054822;28;20048;-78
2022/09/17 05:53:29;;;;;;;3.78;0.77;;;17.20;99.90;;;;;;5055999;28;20036;-77
2022/09/17 05:55:57;;;;;;;0.57;0.35;;;17.20;99.90;;;;;;5055873;28;20029;-78
2022/09/17 05:58:26;;;;;;;1.92;0.40;;;17.20;99.90;;;;;;5056116;28;20474;-78
2022/09/17 06:00:53;;;;;;;1.33;0.52;;;17.30;99.90;;;;;;5055822;28;20044;-77
2022/09/17 06:03:21;;;;;;;2.72;0.40;;;17.40;99.90;;;;;;5055690;28;20041;-79
2022/09/17 06:05:59;;;;;;;0.95;0.35;;;17.30;99.90;;;;;;5055874;28;20033;-78
2022/09/17 06:08:28;;;;;;;0.57;0.40;;;17.40;99.90;;;;;;5055846;28;20050;-78
2022/09/17 06:10:55;;;;;;;1.58;0.52;;;17.30;99.90;;;;;;5055627;28;20544;-83
2022/09/17 06:13:23;;;;;;;2.15;0.50;;;17.30;99.90;;;;;;5056390;28;20044;-77
2022/09/17 06:15:52;;;;;;;0.30;0.30;;;17.40;99.90;;;;;;5056405;28;20060;-81
2022/09/17 06:18:20;;;;;;;0.43;0.30;;;17.30;99.90;;;;;;5056092;28;20462;-77
2022/09/17 06:20:54;;;;;;;2.38;0.55;;;17.20;99.90;;;;;;5055512;28;20029;-75
2022/09/17 06:23:23;;;;;;;2.60;0.52;;;17.30;99.90;;;;;;5055926;28;20066;-76
2022/09/17 06:25:58;;;;;;;1.92;0.45;;;17.30;99.90;;;;;;5055365;28;20474;-77
2022/09/17 06:28:26;;;;;;;0.75;0.43;;;17.30;99.90;;;;;;5055516;28;20030;-77
2022/09/17 06:30:56;;;;;;;1.80;0.57;;;17.30;99.90;;;;;;5055195;28;20071;-78
2022/09/17 06:33:24;;;;;;;1.65;0.30;;;17.30;99.90;;;;;;5055454;28;20105;-79
2022/09/17 06:36:04;;;;;;;1.95;0.57;;;17.20;99.90;;;;;;5055233;28;20029;-82
2022/09/17 06:38:33;;;;;;;1.02;0.43;;;17.20;99.90;;;;;;5055263;28;20025;-81
2022/09/17 06:41:00;;;;;;;0.80;0.30;;;17.10;99.90;;;;;;5055059;28;20025;-81
2022/09/17 06:43:28;;;;;;;0.88;0.50;;;17.00;99.90;;;;;;5055123;28;20045;-79
2022/09/17 06:45:58;;;;;;;0.63;0.28;;;16.90;99.90;;;;;;5055158;28;20440;-78
2022/09/17 06:48:28;;;;;;;0.63;0.40;;;16.80;99.90;;;;;;5055074;28;20027;-79
2022/09/17 06:50:56;;;;;;;2.00;0.80;;;16.70;99.90;;;;;;5054808;28;20007;-78
2022/09/17 06:53:24;;;;;;;0.57;0.47;;;16.90;99.90;;;;;;5054807;28;20052;-78
2022/09/17 06:55:51;;;;;;;3.83;0.30;;;16.90;99.90;;;;;;5054656;28;20024;-79
2022/09/17 06:58:18;;;;;;;1.63;0.40;;;17.00;99.90;;;;;;5054774;28;20021;-81
2022/09/17 07:00:46;;;;;;;1.30;0.50;;;16.90;99.90;;;;;;5054437;28;20037;-77
2022/09/17 07:03:13;;;;;;;1.83;0.50;;;16.80;99.90;;;;;;5054435;28;20393;-79
2022/09/17 07:05:44;;;;;;;1.70;0.50;;;16.80;99.90;;;;;;5054561;28;20070;-78
2022/09/17 07:08:11;;;;;;;0.80;0.30;;;16.70;99.90;;;;;;5054722;28;20021;-77
2022/09/17 07:10:38;;;;;;;0.98;0.35;;;16.70;99.90;;;;;;5054345;28;20139;-80
2022/09/17 07:13:06;;;;;;;0.82;0.40;;;16.70;99.90;;;;;;5054623;28;20021;-77
2022/09/17 07:15:33;;;;;;;2.60;0.57;;;16.70;99.90;;;;;;5054180;28;20035;-77
2022/09/17 07:18:07;;;;;;;1.92;0.40;;;16.60;99.90;;;;;;5054368;28;20043;-78
2022/09/17 07:20:34;;;;;;;1.75;0.40;;;16.50;99.90;;;;;;5054455;28;20458;-78
2022/09/17 07:23:02;;;;;;;1.30;0.60;;;16.40;99.90;;;;;;5054269;28;20075;-77
2022/09/17 07:25:29;;;;;;;5.90;0.40;;;16.30;99.90;;;;;;5054254;28;20378;-78
2022/09/17 07:27:56;;;;;;;2.28;0.50;;;16.30;99.90;;;;;;5054154;28;20469;-80
2022/09/17 07:30:24;;;;;;;2.08;0.43;;;16.20;99.90;;;;;;5053825;28;20082;-77
2022/09/17 07:32:54;;;;;;;0.35;0.30;;;16.10;99.90;;;;;;5053200;28;20025;-78
2022/09/17 07:35:21;;;;;;;0.93;0.52;;;16.00;99.90;;;;;;5054020;28;20062;-78
2022/09/17 07:37:49;;;;;;;0.45;0.38;;;15.90;99.90;;;;;;5054347;28;20029;-78
2022/09/17 07:40:16;;;;;;;1.85;0.50;;;15.80;99.90;;;;;;5053880;28;20501;-77
2022/09/17 07:42:43;;;;;;;1.27;0.60;;;15.70;99.90;;;;;;5054133;28;20467;-79
2022/09/17 07:45:11;;;;;;;0.77;0.40;;;15.60;99.90;;;;;;5054240;28;20109;-77
2022/09/17 07:47:40;;;;;;;2.10;0.60;;;15.50;99.90;;;;;;5053947;28;20071;-76
2022/09/17 07:50:08;;;;;;;0.95;0.40;;;15.50;99.90;;;;;;5052380;28;20041;-81
2022/09/17 07:52:36;;;;;;;1.85;0.50;;;15.40;99.90;;;;;;5053808;28;20033;-80
2022/09/17 07:55:03;;;;;;;3.25;0.50;;;15.30;99.90;;;;;;5053636;28;20032;-79
2022/09/17 07:57:31;;;;;;;1.27;0.63;;;15.20;99.90;;;;;;5053757;28;20029;-79
2022/09/17 07:59:58;;;;;;;3.92;0.43;;;15.10;99.90;;;;;;5053851;28;20025;-78
2022/09/17 08:02:27;;;;;;;3.75;0.35;;;15.10;99.90;;;;;;5053564;28;20147;-83
2022/09/17 08:04:54;;;;;;;1.42;0.30;;;15.00;99.90;;;;;;5053413;28;20059;-79
2022/09/17 08:07:22;;;;;;;1.23;0.40;;;14.90;99.90;;;;;;5052105;28;20025;-77
2022/09/17 08:09:49;;;;;;;0.68;0.32;;;14.90;99.90;;;;;;5053207;28;20037;-76
2022/09/17 08:12:18;;;;;;;0.80;0.35;;;14.80;99.90;;;;;;5053324;28;20021;-76
2022/09/17 08:14:45;;;;;;;0.90;0.50;;;14.70;99.90;;;;;;5053422;28;20029;-77
2022/09/17 08:17:12;;;;;;;2.13;0.65;;;14.70;99.90;;;;;;5052401;28;20057;-78
2022/09/17 08:19:40;;;;;;;0.70;0.40;;;14.60;99.90;;;;;;5053415;28;20475;-76
2022/09/17 08:22:07;;;;;;;1.17;0.65;;;14.60;99.90;;;;;;5053659;28;20128;-79
2022/09/17 08:24:34;;;;;;;1.05;0.43;;;14.60;99.90;;;;;;5053344;28;20025;-80
2022/09/17 08:27:02;;;;;;;5.35;0.82;;;14.60;99.90;;;;;;5053613;28;20017;-77
2022/09/17 08:29:29;;;;;;;1.55;0.85;;;14.50;99.90;;;;;;5051975;28;20032;-80
2022/09/17 08:31:56;;;;;;;0.73;0.30;;;14.40;99.90;;;;;;5053424;28;20021;-82
2022/09/17 08:34:24;;;;;;;1.58;0.47;;;14.40;99.90;;;;;;5053288;28;20021;-80
2022/09/17 08:36:51;;;;;;;0.70;0.43;;;14.30;99.90;;;;;;5052991;28;20389;-81
2022/09/17 08:39:18;;;;;;;1.98;0.70;;;14.20;99.90;;;;;;5053389;28;20021;-80
2022/09/17 08:42:08;;;;;;;1.42;0.65;;;14.20;99.90;;;;;;5051929;28;20025;-81
2022/09/17 08:44:45;;;;;;;1.60;0.55;;;14.10;99.90;;;;;;5026872;28;20029;-80
2022/09/17 08:47:17;;;;;;;5.20;0.77;;;14.00;99.90;;;;;;5057593;28;20055;-80
2022/09/17 08:49:56;;;;;;;1.08;0.30;;;14.00;99.90;;;;;;5057365;28;20036;-81
2022/09/17 08:52:48;;;;;;;2.15;0.68;;;13.90;99.90;;;;;;5057917;28;20021;-81
2022/09/17 08:55:24;;;;;;;3.40;0.88;;;13.90;99.90;;;;;;5057283;28;20480;-79
2022/09/17 08:58:26;;;;;;;0.88;0.60;;;13.80;99.90;;;;;;5057199;28;20029;-80
2022/09/17 09:01:20;;;;;;;2.53;1.10;;;13.80;99.90;;;;;;5057284;28;20474;-80
2022/09/17 09:04:05;;;;;;;1.75;0.93;;;13.80;99.90;;;;;;5057102;28;20033;-80
2022/09/17 09:06:54;;;;;;;2.92;0.77;;;13.70;99.90;;;;;;5057375;28;20033;-80
2022/09/17 09:09:25;;;;;;;4.38;1.00;;;13.70;99.90;;;;;;5056829;28;20028;-79
2022/09/17 09:12:01;;;;;;;4.03;0.90;;;13.70;99.90;;;;;;5057430;28;20381;-80
2022/09/17 09:14:36;;;;;;;3.50;1.05;;;13.60;99.90;;;;;;5056756;28;20095;-81
2022/09/17 09:17:08;;;;;;;6.55;0.95;;;13.60;99.90;;;;;;5056958;28;20025;-81
2022/09/17 09:19:46;;;;;;;4.30;0.80;;;13.70;99.90;;;;;;5056562;28;20082;-78
2022/09/17 09:22:13;;;;;;;1.55;0.63;;;13.60;99.90;;;;;;5056642;28;20025;-79
2022/09/17 09:25:22;;;;;;;3.72;0.98;;;13.60;99.90;;;;;;5057180;28;20025;-80
2022/09/17 09:28:19;;;;;;;1.50;0.90;;;13.50;99.90;;;;;;5056423;28;20025;-78
2022/09/17 09:31:00;;;;;;;1.63;0.85;;;13.50;99.90;;;;;;5056566;28;20064;-80
2022/09/17 09:33:32;;;;;;;2.97;1.20;;;13.50;99.90;;;;;;5056580;28;20060;-80
2022/09/17 09:35:59;;;;;;;6.22;1.00;;;13.40;99.90;;;;;;5055282;28;20025;-81
2022/09/17 09:38:34;;;;;;;2.67;1.60;;;13.40;99.90;;;;;;5056431;28;20017;-80
2022/09/17 09:41:16;;;;;;;5.63;1.20;;;13.50;99.90;;;;;;5056387;28;20474;-81
2022/09/17 09:43:58;;;;;;;8.75;1.50;;;13.50;99.90;;;;;;5056266;28;20037;-78
2022/09/17 09:46:58;;;;;;;2.72;1.15;;;13.50;99.90;;;;;;5056695;28;20025;-81
2022/09/17 09:49:34;;;;;;;3.55;1.23;;;13.50;99.90;;;;;;5056203;28;20039;-81
2022/09/17 09:52:31;;;;;;;2.00;0.95;;;13.50;99.90;;;;;;5056698;28;20017;-81
2022/09/17 09:55:16;;;;;;;3.50;1.10;;;13.50;99.90;;;;;;5055205;28;20037;-81
2022/09/17 09:57:48;;;;;;;2.55;1.25;;;13.50;99.90;;;;;;5056227;28;20040;-81
2022/09/17 10:00:38;;;;;;;3.03;1.30;;;13.50;99.90;;;;;;5055902;28;20028;-81
2022/09/17 10:03:32;;;;;;;2.53;1.20;;;13.50;99.90;;;;;;5055616;28;20413;-82
2022/09/17 10:06:04;;;;;;;5.05;1.52;;;13.50;99.90;;;;;;5050913;28;20043;-81
2022/09/17 10:08:36;;;;;;;5.50;1.27;;;13.50;99.90;;;;;;5055648;28;20108;-78
2022/09/17 10:11:13;;;;;;;3.80;1.52;;;13.50;99.90;;;;;;5055796;28;20036;-81
2022/09/17 10:13:40;;;;;;;1.88;1.20;;;13.40;99.90;;;;;;5055698;28;20470;-81
2022/09/17 10:16:26;;;;;;;2.15;1.10;;;13.40;99.90;;;;;;5054373;28;20028;-81
2022/09/17 10:19:05;;;;;;;1.70;1.10;;;13.40;99.90;;;;;;5055671;28;20488;-81
2022/09/17 10:21:35;;;;;;;2.25;1.15;;;13.30;99.90;;;;;;5056394;28;20355;-80
2022/09/17 10:24:04;;;;;;;2.00;0.80;;;13.30;99.90;;;;;;5055484;28;20102;-81
2022/09/17 10:26:37;;;;;;;3.95;1.10;;;13.20;99.90;;;;;;5055648;28;20021;-82
2022/09/17 10:29:11;;;;;;;8.02;1.45;;;13.10;99.90;;;;;;5055353;28;20033;-81
2022/09/17 10:31:50;;;;;;;2.37;0.97;;;13.00;99.90;;;;;;5055668;28;20158;-81
2022/09/17 10:34:24;;;;;;;4.00;1.00;;;13.00;99.90;;;;;;5055446;28;20021;-82
2022/09/17 10:36:52;;;;;;;3.35;1.20;;;13.00;99.90;;;;;;5055670;28;20025;-81
2022/09/17 10:39:22;;;;;;;2.28;1.20;;;13.00;99.90;;;;;;5055640;28;20106;-81
2022/09/17 10:42:00;;;;;;;1.98;0.95;;;13.00;99.90;;;;;;5055811;28;20034;-81
2022/09/17 10:44:34;;;;;;;5.25;0.98;;;12.90;99.90;;;;;;5055547;28;20052;-77
2022/09/17 10:47:32;;;;;;;2.08;1.27;;;12.90;99.90;;;;;;5055427;28;20024;-79
2022/09/17 10:50:03;;;;;;;2.17;0.80;;;12.90;99.90;;;;;;5047611;28;20037;-81
2022/09/17 10:52:42;;;;;;;3.58;1.10;;;12.80;99.90;;;;;;5055200;28;20382;-80
2022/09/17 10:55:16;;;;;;;2.63;0.82;;;12.80;99.90;;;;;;5055436;28;20032;-80
2022/09/17 10:58:07;;;;;;;2.13;0.98;;;12.80;99.90;;;;;;5055361;28;20025;-80
2022/09/17 11:00:45;;;;;;;2.65;0.93;;;12.80;99.90;;;;;;5055151;28;20021;-79
2022/09/17 11:03:24;;;;;;;1.45;0.68;;;12.80;99.90;;;;;;5053697;28;20040;-80
2022/09/17 11:06:03;;;;;;;1.73;0.80;;;12.80;99.90;;;;;;5055080;28;20048;-80
2022/09/17 11:08:47;;;;;;;3.20;0.93;;;12.80;99.90;;;;;;5055456;28;20017;-79
2022/09/17 11:11:39;;;;;;;2.22;0.65;;;12.80;99.90;;;;;;5054905;28;20041;-81
2022/09/17 11:14:09;;;;;;;2.75;0.80;;;12.80;99.90;;;;;;5054805;28;20374;-80
2022/09/17 11:16:54;;;;;;;2.38;1.10;;;12.80;99.90;;;;;;5054566;28;20045;-81
2022/09/17 11:19:46;;;;;;;1.95;0.70;;;12.80;99.90;;;;;;5054938;28;20021;-80
2022/09/17 11:22:41;;;;;;;4.18;0.80;;;12.80;99.90;;;;;;5054518;28;20033;-80
2022/09/17 11:25:20;;;;;;;2.95;0.85;;;12.70;99.90;;;;;;5054938;28;20025;-80
2022/09/17 11:28:02;;;;;;;2.42;0.95;;;12.70;99.90;;;;;;5055294;28;20017;-80
2022/09/17 11:30:49;;;;;;;4.35;0.98;;;12.70;99.90;;;;;;5055872;28;20040;-81
2022/09/17 11:33:30;;;;;;;3.10;0.82;;;12.70;99.90;;;;;;5055594;28;20025;-82
2022/09/17 11:36:11;;;;;;;1.48;0.90;;;12.60;99.90;;;;;;5056409;28;20047;-82
2022/09/17 11:38:54;;;;;;;3.15;0.70;;;12.60;99.90;;;;;;5066936;28;20025;-81
2022/09/17 11:41:37;;;;;;;4.95;0.85;;;12.60;99.90;;;;;;5068197;28;20035;-80
2022/09/17 11:44:21;;;;;;;2.25;0.98;;;12.60;99.90;;;;;;5065533;28;20029;-81
2022/09/17 11:47:02;;;;;;;1.73;0.85;;;12.60;99.90;;;;;;5067498;28;20017;-81
2022/09/17 11:49:38;;;;;;;1.80;0.90;;;12.60;99.90;;;;;;5065645;28;20028;-80
2022/09/17 11:52:11;;;;;;;3.80;0.93;;;12.60;99.90;;;;;;5062929;28;20377;-81
2022/09/17 11:54:53;;;;;;;2.10;0.70;;;12.60;99.90;;;;;;5064284;28;20043;-81
2022/09/17 11:57:25;;;;;;;6.22;0.80;;;12.60;99.90;;;;;;5063762;28;20025;-81
2022/09/17 12:00:18;;;;;;;3.22;0.98;;;12.60;99.90;;;;;;5063522;28;20029;-82
2022/09/17 12:03:05;;;;;;;1.70;0.98;;;12.60;99.90;;;;;;5059310;28;20055;-78
2022/09/17 12:05:51;;;;;;;3.97;0.93;;;12.60;99.90;;;;;;5061167;28;20025;-77
2022/09/17 12:08:28;;;;;;;7.07;1.33;;;12.60;99.90;;;;;;5067804;28;20009;-77
2022/09/17 12:11:42;;;;;;;1.85;0.60;;;12.70;99.90;;;;;;5070590;28;20044;-78
2022/09/17 12:14:24;;;;;;;6.30;0.98;;;12.60;99.90;;;;;;5027833;28;20029;-80
2022/09/17 12:16:57;;;;;;;4.00;1.05;;;12.60;99.90;;;;;;5070150;28;20036;-80
2022/09/17 12:19:39;;;;;;;3.97;1.25;;;12.60;99.90;;;;;;5067228;28;20025;-77
2022/09/17 12:22:22;;;;;;;1.60;0.68;;;12.60;99.90;;;;;;5069450;28;20021;-79
2022/09/17 12:24:53;;;;;;;2.10;0.90;;;12.60;99.90;;;;;;5067844;28;20081;-81
2022/09/17 12:27:53;;;;;;;5.13;0.75;;;12.50;99.90;;;;;;5068141;28;20079;-79
2022/09/17 12:30:28;;;;;;;2.28;0.65;;;12.50;99.90;;;;;;5067950;28;20056;-81
2022/09/17 12:33:14;;;;;;;3.75;0.70;;;12.50;99.90;;;;;;5060453;28;20018;-81
2022/09/17 12:35:59;;;;;;;4.78;1.05;;;12.50;99.90;;;;;;5053315;28;20061;-81
2022/09/17 12:38:44;;;;;;;2.53;0.52;;;12.40;99.90;;;;;;5053571;28;20025;-80
2022/09/17 12:41:36;;;;;;;1.87;0.93;;;12.40;99.90;;;;;;5053223;28;20029;-81
2022/09/17 12:44:15;;;;;;;2.78;1.08;;;12.40;99.90;;;;;;5053639;28;20028;-80
2022/09/17 12:47:09;;;;;;;3.25;0.63;;;12.40;99.90;;;;;;5053394;28;20037;-78
2022/09/17 12:49:42;;;;;;;1.48;0.52;;;12.40;99.90;;;;;;5031796;28;20041;-81
2022/09/17 12:52:27;;;;;;;1.77;0.60;;;12.40;99.90;;;;;;5053537;28;20526;-81
2022/09/17 12:55:09;;;;;;;3.38;0.65;;;12.40;99.90;;;;;;5053231;28;20021;-81
2022/09/17 12:57:56;;;;;;;1.35;0.73;;;12.40;99.90;;;;;;5053061;28;20029;-79
2022/09/17 13:00:24;;;;;;;4.95;0.70;;;12.40;99.90;;;;;;5053207;28;20432;-80
2022/09/17 13:03:10;;;;;;;1.98;0.57;;;12.40;99.90;;;;;;5052956;28;20071;-78
2022/09/17 13:06:13;;;;;;;1.83;0.60;;;12.40;99.90;;;;;;5053315;28;20095;-80
2022/09/17 13:09:22;;;;;;;6.95;0.75;;;12.30;99.90;;;;;;5053147;28;20013;-82
2022/09/17 13:12:02;;;;;;;3.03;0.73;;;12.40;99.90;;;;;;5053000;28;20154;-79
2022/09/17 13:14:47;;;;;;;1.30;0.50;;;12.40;99.90;;;;;;5053416;28;20024;-82
2022/09/17 13:17:24;;;;;;;2.75;0.63;;;12.30;99.90;;;;;;5053062;28;20029;-81
2022/09/17 13:20:14;;;;;;;2.28;0.88;;;12.30;99.90;;;;;;5052825;28;20095;-82
2022/09/17 13:22:48;;;;;;;3.85;0.93;;;12.30;99.90;;;;;;5052875;28;20509;-78
2022/09/17 13:25:18;;;;;;;4.28;0.70;;;12.30;99.90;;;;;;5052739;28;20082;-81
2022/09/17 13:27:50;;;;;;;0.65;0.40;;;12.30;99.90;;;;;;5052840;28;20021;-81